Topi Weather



Topi's Current Weather

Temprature 31.61o light rain

light rain

Rain: 0 %

Min Temprature31o
Max Temprature32.22o
Humidity52
Wind Speed1.5 m/h
Sun Rise05:03:28
Sun Set19:24:26
Current Time: 05-Jul-2020 19:38:27
Lat/Lon: 34.07, 72.62




Topi's Geo Location



Topi's Weather Forecast

Time Overall Temp Min Temp Max Temp Humidity Wind Speed Rain
05-Jul-2020 (Sun)
20:00:00 light rain 31.980 31.980 32.370 44 3.06 m/h 21 %
23:00:00 light rain 30.500 30.190 30.500 40 3.89 m/h 15 %
06-Jul-2020 (Mon)
02:00:00 light rain 28.560 28.350 28.560 44 1.65 m/h 65 %
05:00:00 clear sky 27.720 27.690 27.720 42 1.93 m/h 0 %
08:00:00 clear sky 32.350 32.350 32.350 30 1.48 m/h 0 %
11:00:00 clear sky 37.460 37.460 37.460 22 2.12 m/h 0 %
14:00:00 clear sky 39.990 39.990 39.990 17 2.98 m/h 0 %
17:00:00 clear sky 40.290 40.290 40.290 16 2.03 m/h 0 %
20:00:00 few clouds 36.380 36.380 36.380 20 1.35 m/h 0 %
23:00:00 scattered clouds 34.230 34.230 34.230 23 2.2 m/h 0 %
07-Jul-2020 (Tue)
02:00:00 broken clouds 31.940 31.940 31.940 28 3.03 m/h 0 %
05:00:00 scattered clouds 30.320 30.320 30.320 30 3.24 m/h 0 %
08:00:00 clear sky 35.970 35.970 35.970 23 1.86 m/h 0 %
11:00:00 clear sky 40.800 40.800 40.800 16 2.38 m/h 0 %
14:00:00 clear sky 42.830 42.830 42.830 14 3.12 m/h 0 %
17:00:00 clear sky 42.840 42.840 42.840 13 2.39 m/h 0 %
20:00:00 clear sky 38.200 38.200 38.200 17 1.06 m/h 0 %
23:00:00 clear sky 35.860 35.860 35.860 19 2.01 m/h 0 %
08-Jul-2020 (Wed)
02:00:00 clear sky 33.430 33.430 33.430 23 3.45 m/h 0 %
05:00:00 clear sky 31.820 31.820 31.820 26 2.39 m/h 0 %
08:00:00 clear sky 36.600 36.600 36.600 25 0.89 m/h 0 %
11:00:00 clear sky 40.880 40.880 40.880 24 3.17 m/h 0 %
14:00:00 clear sky 43.370 43.370 43.370 18 3.73 m/h 0 %
17:00:00 clear sky 43.480 43.480 43.480 15 1.68 m/h 0 %
20:00:00 clear sky 39.230 39.230 39.230 19 0.5 m/h 0 %
23:00:00 clear sky 36.990 36.990 36.990 21 2.57 m/h 0 %
09-Jul-2020 (Thu)
02:00:00 scattered clouds 34.810 34.810 34.810 26 3.1 m/h 0 %
05:00:00 broken clouds 33.420 33.420 33.420 34 3.05 m/h 0 %
08:00:00 light rain 36.370 36.370 36.370 34 1.97 m/h 35 %
11:00:00 light rain 40.020 40.020 40.020 30 3.73 m/h 34 %
14:00:00 clear sky 42.660 42.660 42.660 23 4.15 m/h 0 %
17:00:00 clear sky 43.470 43.470 43.470 19 2.58 m/h 0 %
20:00:00 light rain 38.510 38.510 38.510 25 3.14 m/h 14 %
23:00:00 light rain 30.200 30.200 30.200 51 6.12 m/h 202 %
10-Jul-2020 (Fri)
02:00:00 light rain 28.630 28.630 28.630 52 2.9 m/h 166 %
05:00:00 moderate rain 27.550 27.550 27.550 55 3.58 m/h 308 %
08:00:00 light rain 31.100 31.100 31.100 43 1.35 m/h 142 %
11:00:00 light rain 35.360 35.360 35.360 36 1.76 m/h 11 %
14:00:00 clear sky 38.430 38.430 38.430 30 2.4 m/h 0 %
17:00:00 clear sky 39.610 39.610 39.610 26 1.42 m/h 0 %

Famous Cities (60)